HECA/CAI METAR and TAF weather

Enter ICAO airport designator
Station Type Date Time Source
HECA METAR 2022/06/28 14:00 UTC NOAA

HECA 281400Z 33008KT CAVOK 33/14 Q1006 NOSIG


Station Type Date Time Source
HECA Decoded METAR 2022/06/28 14:00 UTC NOAA

Cairo Airport, Egypt (HECA) 30-08N 031-24E 74M
Jun 28, 2022 - 10:00 AM EDT / 2022.06.28 1400 UTC
Wind: from the NNW (330 degrees) at 9 MPH (8 KT):0
Visibility: greater than 7 mile(s):0
Temperature: 91 F (33 C)
Dew Point: 57 F (14 C)
Relative Humidity: 31%
Pressure (altimeter): 29.71 in. Hg (1006 hPa)
ob: HECA 281400Z 33008KT CAVOK 33/14 Q1006 NOSIG
cycle: 14

Station Type Date Time Source
HECA TAF 2022/06/28 12:52 UTC NOAA

TAF HECA 281100Z 2812/2918 30009KT CAVOK= ------------------------------------------------------------- TAF HEAX 281100Z 2812/2918 32012KT 9999 FEW020

Example: see airport list